KINDAKUN ROCKS(AUT) current weather conditions

sailwx.info

Wind from 260 at 11 knots gusting 15

Air temperature 4.6° C
Dewpoint -0.2° C

Last reported at 2016-Dec-04 18:00 UTC.
Time now 2016-Dec-04 20:27 UTC

Location: N 53°19' W 132°46'.
View on Google Maps.

See reports from other nearby stations

  
Tides and Currents Weather Stations Pressure Air Temp Water Temp Dewpoint Dewpoint Depression Visibility Wind Speed Wind Dir Waves Ship Positions
date/time (UTC)wind fromknots sea level pressurealtimeterstation pressurevisibilityair tempwater tempwave heightnotes
2016-Dec-04 19:00 270 15 4.7
2016-Dec-04 18:00 260 11 gusting 15 4.6
2016-Dec-04 17:00 270 9 4.0
2016-Dec-04 16:00 260 27 gusting 33 4.1
2016-Dec-04 15:00 280 9 4.5
2016-Dec-04 14:00 290 13 gusting 19 5.1
2016-Dec-04 13:00 270 13 gusting 20 5.4
2016-Dec-04 12:00 300 9 4.8
2016-Dec-04 11:00 260 15 5.3
2016-Dec-04 10:00 220 17 gusting 24 3.7
2016-Dec-04 09:00 270 17 4.6
2016-Dec-04 08:00 240 20 gusting 27 4.9
2016-Dec-04 07:00 300 11 3.7
2016-Dec-04 06:00 280 35 gusting 41 4.8
2016-Dec-04 05:00 300 20 6.4
2016-Dec-04 04:00 330 21 gusting 28 5.1
2016-Dec-04 03:00 310 25 gusting 31 5.7
2016-Dec-04 02:00 310 27 gusting 34 4.6
2016-Dec-04 01:00 300 32 gusting 39 4.0
2016-Dec-04 00:00 280 32 gusting 99 3.3
2016-Dec-03 23:00 270 24 gusting 31 4.0
2016-Dec-03 22:00 270 22 gusting 47 3.9
2016-Dec-03 21:00 260 17 gusting 21 5.5
2016-Dec-03 20:00 250 18 gusting 24 5.8
2016-Dec-03 19:00 250 12 4.2
2016-Dec-03 18:00 260 22 gusting 27 4.8
2016-Dec-03 17:00 250 20 gusting 34 3.4
2016-Dec-03 16:00 280 26 gusting 32 5.3
2016-Dec-03 15:00 250 17 gusting 25 3.5
2016-Dec-03 14:00 260 22 5.7
2016-Dec-03 13:00 260 17 4.5
2016-Dec-03 12:00 260 19 5.7
2016-Dec-03 11:00 250 18 gusting 32 5.1
2016-Dec-03 10:00 250 21 gusting 33 5.6
2016-Dec-03 09:00 270 18 gusting 27 5.8
2016-Dec-03 08:00 270 24 gusting 29 7.0
2016-Dec-03 07:00 270 24 6.7
2016-Dec-03 06:00 270 21 gusting 27 6.4
2016-Dec-03 05:00 260 19 gusting 24 6.6
2016-Dec-03 04:00 250 27 gusting 40 7.1
2016-Dec-03 03:00 230 20 gusting 27 7.8
2016-Dec-03 02:00 250 26 gusting 33 8.2
2016-Dec-03 01:00 240 27 7.5
2016-Dec-03 00:00 250 28 gusting 34 8.7
2016-Dec-02 23:00 250 27 gusting 44 8.7
2016-Dec-02 22:00 250 28 gusting 38 8.4
2016-Dec-02 21:00 250 26 gusting 31 9.3
2016-Dec-02 20:00 250 20 gusting 25 8.2